sensor_id;sensor_type;location;lat;lon;timestamp;pressure;altitude;pressure_sealevel;temperature;humidity
54022;BME280;39936;51.058;17.220;2023-10-13T00:03:24;101610.52;;;13.22;100.00
54022;BME280;39936;51.058;17.220;2023-10-13T00:11:16;101605.77;;;13.33;100.00
54022;BME280;39936;51.058;17.220;2023-10-13T00:14:47;101602.38;;;13.38;100.00
54022;BME280;39936;51.058;17.220;2023-10-13T00:18:07;101601.68;;;13.41;100.00
54022;BME280;39936;51.058;17.220;2023-10-13T00:22:06;101598.71;;;13.44;100.00
54022;BME280;39936;51.058;17.220;2023-10-13T00:25:37;101579.34;;;13.30;100.00
54022;BME280;39936;51.058;17.220;2023-10-13T00:29:04;101605.65;;;13.42;100.00
54022;BME280;39936;51.058;17.220;2023-10-13T00:32:44;101576.34;;;13.26;100.00
54022;BME280;39936;51.058;17.220;2023-10-13T00:36:06;101604.15;;;13.44;100.00
54022;BME280;39936;51.058;17.220;2023-10-13T00:40:13;101602.97;;;13.42;100.00
54022;BME280;39936;51.058;17.220;2023-10-13T00:43:44;101602.41;;;13.33;100.00
54022;BME280;39936;51.058;17.220;2023-10-13T00:47:22;101589.51;;;13.22;100.00
54022;BME280;39936;51.058;17.220;2023-10-13T00:50:46;101603.54;;;13.35;100.00
54022;BME280;39936;51.058;17.220;2023-10-13T00:54:03;101592.99;;;13.33;100.00
54022;BME280;39936;51.058;17.220;2023-10-13T00:57:28;101598.80;;;13.38;100.00
54022;BME280;39936;51.058;17.220;2023-10-13T01:00:58;101597.79;;;13.37;100.00
54022;BME280;39936;51.058;17.220;2023-10-13T01:04:22;101599.59;;;13.37;100.00
54022;BME280;39936;51.058;17.220;2023-10-13T01:08:08;101570.68;;;13.16;100.00
54022;BME280;39936;51.058;17.220;2023-10-13T01:11:27;101601.48;;;13.36;100.00
54022;BME280;39936;51.058;17.220;2023-10-13T01:15:09;101606.64;;;13.34;100.00
54022;BME280;39936;51.058;17.220;2023-10-13T01:18:29;101608.27;;;13.30;100.00
54022;BME280;39936;51.058;17.220;2023-10-13T01:21:48;101596.98;;;13.18;100.00
54022;BME280;39936;51.058;17.220;2023-10-13T01:25:07;101621.20;;;13.27;100.00
54022;BME280;39936;51.058;17.220;2023-10-13T01:28:30;101628.20;;;13.27;100.00
54022;BME280;39936;51.058;17.220;2023-10-13T01:32:13;101632.74;;;13.29;100.00
54022;BME280;39936;51.058;17.220;2023-10-13T01:35:49;101632.12;;;13.27;100.00
54022;BME280;39936;51.058;17.220;2023-10-13T01:39:03;101611.36;;;13.11;100.00
54022;BME280;39936;51.058;17.220;2023-10-13T01:42:18;101628.09;;;13.23;100.00
54022;BME280;39936;51.058;17.220;2023-10-13T01:45:43;101621.49;;;13.18;100.00
54022;BME280;39936;51.058;17.220;2023-10-13T01:49:17;101616.08;;;13.16;100.00
54022;BME280;39936;51.058;17.220;2023-10-13T01:52:33;101612.06;;;13.12;100.00
54022;BME280;39936;51.058;17.220;2023-10-13T01:56:14;101609.87;;;13.13;100.00
54022;BME280;39936;51.058;17.220;2023-10-13T01:59:53;101609.84;;;13.15;100.00
54022;BME280;39936;51.058;17.220;2023-10-13T02:03:30;101614.76;;;13.16;100.00
54022;BME280;39936;51.058;17.220;2023-10-13T02:06:49;101616.44;;;13.15;100.00
54022;BME280;39936;51.058;17.220;2023-10-13T02:10:07;101617.42;;;13.12;100.00
54022;BME280;39936;51.058;17.220;2023-10-13T02:13:51;101618.69;;;13.11;100.00
54022;BME280;39936;51.058;17.220;2023-10-13T02:17:21;101613.91;;;13.01;100.00
54022;BME280;39936;51.058;17.220;2023-10-13T02:20:53;101617.55;;;12.99;100.00
54022;BME280;39936;51.058;17.220;2023-10-13T02:24:21;101611.28;;;12.94;100.00
54022;BME280;39936;51.058;17.220;2023-10-13T02:27:49;101607.77;;;12.86;100.00
54022;BME280;39936;51.058;17.220;2023-10-13T02:31:13;101609.76;;;12.91;100.00
54022;BME280;39936;51.058;17.220;2023-10-13T02:34:34;101609.89;;;12.91;100.00
54022;BME280;39936;51.058;17.220;2023-10-13T02:38:00;101603.45;;;12.86;100.00
54022;BME280;39936;51.058;17.220;2023-10-13T02:41:36;101605.77;;;12.83;100.00
54022;BME280;39936;51.058;17.220;2023-10-13T02:44:52;101601.95;;;12.80;100.00
54022;BME280;39936;51.058;17.220;2023-10-13T02:48:14;101597.97;;;12.80;100.00
54022;BME280;39936;51.058;17.220;2023-10-13T02:51:37;101607.05;;;12.88;100.00
54022;BME280;39936;51.058;17.220;2023-10-13T02:55:51;101610.44;;;12.92;100.00
54022;BME280;39936;51.058;17.220;2023-10-13T02:59:05;101611.62;;;12.97;100.00
54022;BME280;39936;51.058;17.220;2023-10-13T03:06:18;101610.47;;;13.01;100.00
54022;BME280;39936;51.058;17.220;2023-10-13T03:10:06;101618.66;;;13.03;100.00
54022;BME280;39936;51.058;17.220;2023-10-13T03:13:28;101621.79;;;13.04;100.00
54022;BME280;39936;51.058;17.220;2023-10-13T03:17:03;101621.33;;;13.02;100.00
54022;BME280;39936;51.058;17.220;2023-10-13T03:21:11;101611.77;;;12.90;100.00
54022;BME280;39936;51.058;17.220;2023-10-13T03:24:37;101630.09;;;12.94;100.00
54022;BME280;39936;51.058;17.220;2023-10-13T03:27:59;101627.78;;;12.93;100.00
54022;BME280;39936;51.058;17.220;2023-10-13T03:31:39;101622.52;;;12.86;100.00
54022;BME280;39936;51.058;17.220;2023-10-13T03:34:50;101623.50;;;12.87;100.00
54022;BME280;39936;51.058;17.220;2023-10-13T03:38:37;101626.32;;;12.86;100.00
54022;BME280;39936;51.058;17.220;2023-10-13T03:42:18;101622.26;;;12.84;100.00
54022;BME280;39936;51.058;17.220;2023-10-13T03:45:45;101623.52;;;12.84;100.00
54022;BME280;39936;51.058;17.220;2023-10-13T03:49:23;101626.11;;;12.84;100.00
54022;BME280;39936;51.058;17.220;2023-10-13T03:52:34;101620.34;;;12.76;100.00
54022;BME280;39936;51.058;17.220;2023-10-13T03:55:53;101629.27;;;12.76;100.00
54022;BME280;39936;51.058;17.220;2023-10-13T04:00:08;101627.41;;;12.75;100.00
54022;BME280;39936;51.058;17.220;2023-10-13T04:03:31;101623.47;;;12.74;100.00
54022;BME280;39936;51.058;17.220;2023-10-13T04:07:13;101620.88;;;12.76;100.00
54022;BME280;39936;51.058;17.220;2023-10-13T04:10:51;101622.33;;;12.79;100.00
54022;BME280;39936;51.058;17.220;2023-10-13T04:14:43;101621.36;;;12.84;100.00
54022;BME280;39936;51.058;17.220;2023-10-13T04:18:11;101616.14;;;12.83;100.00
54022;BME280;39936;51.058;17.220;2023-10-13T04:21:39;101614.08;;;12.82;100.00
54022;BME280;39936;51.058;17.220;2023-10-13T04:25:06;101593.16;;;12.71;100.00
54022;BME280;39936;51.058;17.220;2023-10-13T04:28:41;101613.25;;;12.83;100.00
54022;BME280;39936;51.058;17.220;2023-10-13T04:32:03;101612.24;;;12.84;100.00
54022;BME280;39936;51.058;17.220;2023-10-13T04:35:29;101610.03;;;12.84;100.00
54022;BME280;39936;51.058;17.220;2023-10-13T04:39:06;101610.04;;;12.86;100.00
54022;BME280;39936;51.058;17.220;2023-10-13T04:42:52;101606.92;;;12.88;100.00
54022;BME280;39936;51.058;17.220;2023-10-13T04:46:42;101604.39;;;12.92;100.00
54022;BME280;39936;51.058;17.220;2023-10-13T04:50:14;101600.41;;;12.91;100.00
54022;BME280;39936;51.058;17.220;2023-10-13T04:54:11;101605.29;;;12.96;100.00
54022;BME280;39936;51.058;17.220;2023-10-13T04:57:35;101609.97;;;12.98;100.00
54022;BME280;39936;51.058;17.220;2023-10-13T05:01:31;101607.10;;;13.03;100.00
54022;BME280;39936;51.058;17.220;2023-10-13T05:05:08;101611.01;;;13.10;100.00
54022;BME280;39936;51.058;17.220;2023-10-13T05:08:50;101610.26;;;13.16;100.00
54022;BME280;39936;51.058;17.220;2023-10-13T05:12:31;101607.44;;;13.24;100.00
54022;BME280;39936;51.058;17.220;2023-10-13T05:15:58;101607.59;;;13.26;100.00
54022;BME280;39936;51.058;17.220;2023-10-13T05:19:51;101609.30;;;13.31;100.00
54022;BME280;39936;51.058;17.220;2023-10-13T05:23:21;101612.43;;;13.32;100.00
54022;BME280;39936;51.058;17.220;2023-10-13T05:26:52;101614.45;;;13.35;100.00
54022;BME280;39936;51.058;17.220;2023-10-13T05:30:20;101612.42;;;13.43;100.00
54022;BME280;39936;51.058;17.220;2023-10-13T05:34:07;101608.06;;;13.51;100.00
54022;BME280;39936;51.058;17.220;2023-10-13T05:37:34;101599.89;;;13.54;100.00
54022;BME280;39936;51.058;17.220;2023-10-13T05:41:05;101611.65;;;13.51;100.00
54022;BME280;39936;51.058;17.220;2023-10-13T05:44:36;101610.02;;;13.51;100.00
54022;BME280;39936;51.058;17.220;2023-10-13T05:48:40;101604.91;;;13.58;100.00
54022;BME280;39936;51.058;17.220;2023-10-13T05:52:29;101601.51;;;13.68;100.00
54022;BME280;39936;51.058;17.220;2023-10-13T05:56:03;101600.20;;;13.76;100.00
54022;BME280;39936;51.058;17.220;2023-10-13T05:59:56;101577.94;;;13.58;100.00
54022;BME280;39936;51.058;17.220;2023-10-13T06:04:10;101612.05;;;13.68;100.00
54022;BME280;39936;51.058;17.220;2023-10-13T06:07:43;101614.30;;;13.74;100.00
54022;BME280;39936;51.058;17.220;2023-10-13T06:11:07;101614.66;;;13.76;100.00
54022;BME280;39936;51.058;17.220;2023-10-13T06:14:37;101624.48;;;13.78;100.00
54022;BME280;39936;51.058;17.220;2023-10-13T06:18:00;101627.62;;;13.76;100.00
54022;BME280;39936;51.058;17.220;2023-10-13T06:21:28;101627.66;;;13.81;100.00
54022;BME280;39936;51.058;17.220;2023-10-13T06:25:09;101634.64;;;13.80;100.00
54022;BME280;39936;51.058;17.220;2023-10-13T06:29:25;101633.43;;;13.77;100.00
54022;BME280;39936;51.058;17.220;2023-10-13T06:32:50;101628.09;;;13.90;100.00
54022;BME280;39936;51.058;17.220;2023-10-13T06:36:37;101599.49;;;13.91;100.00
54022;BME280;39936;51.058;17.220;2023-10-13T06:40:11;101626.48;;;14.21;100.00
54022;BME280;39936;51.058;17.220;2023-10-13T06:43:39;101617.06;;;14.56;100.00
54022;BME280;39936;51.058;17.220;2023-10-13T06:46:59;101609.28;;;14.77;100.00
54022;BME280;39936;51.058;17.220;2023-10-13T06:50:21;101605.76;;;15.03;100.00
54022;BME280;39936;51.058;17.220;2023-10-13T06:53:41;101609.19;;;15.25;100.00
54022;BME280;39936;51.058;17.220;2023-10-13T06:57:09;101611.74;;;15.42;100.00
54022;BME280;39936;51.058;17.220;2023-10-13T07:01:21;101612.51;;;15.48;100.00
54022;BME280;39936;51.058;17.220;2023-10-13T07:04:39;101612.87;;;15.64;100.00
54022;BME280;39936;51.058;17.220;2023-10-13T07:08:09;101610.23;;;15.86;100.00
54022;BME280;39936;51.058;17.220;2023-10-13T07:12:07;101605.61;;;16.09;100.00
54022;BME280;39936;51.058;17.220;2023-10-13T07:15:32;101601.82;;;16.32;100.00
54022;BME280;39936;51.058;17.220;2023-10-13T07:19:00;101594.28;;;16.59;100.00
54022;BME280;39936;51.058;17.220;2023-10-13T07:22:33;101597.90;;;16.78;100.00
54022;BME280;39936;51.058;17.220;2023-10-13T07:26:12;101600.89;;;16.59;100.00
54022;BME280;39936;51.058;17.220;2023-10-13T07:29:34;101614.81;;;16.52;100.00
54022;BME280;39936;51.058;17.220;2023-10-13T07:32:54;101613.68;;;16.50;100.00
54022;BME280;39936;51.058;17.220;2023-10-13T07:36:32;101607.08;;;16.60;100.00
54022;BME280;39936;51.058;17.220;2023-10-13T07:39:53;101608.20;;;16.69;100.00
54022;BME280;39936;51.058;17.220;2023-10-13T07:43:10;101605.54;;;16.83;100.00
54022;BME280;39936;51.058;17.220;2023-10-13T07:50:12;101598.55;;;17.07;100.00
54022;BME280;39936;51.058;17.220;2023-10-13T07:53:34;101600.47;;;17.25;100.00
54022;BME280;39936;51.058;17.220;2023-10-13T07:56:53;101601.19;;;17.27;100.00
54022;BME280;39936;51.058;17.220;2023-10-13T08:00:22;101591.43;;;17.31;100.00
54022;BME280;39936;51.058;17.220;2023-10-13T08:05:54;101591.95;;;17.46;100.00
54022;BME280;39936;51.058;17.220;2023-10-13T08:09:43;101584.94;;;17.57;100.00
54022;BME280;39936;51.058;17.220;2023-10-13T08:13:27;101590.67;;;17.63;100.00
54022;BME280;39936;51.058;17.220;2023-10-13T08:16:42;101587.67;;;17.73;100.00
54022;BME280;39936;51.058;17.220;2023-10-13T08:20:06;101580.05;;;17.76;100.00
54022;BME280;39936;51.058;17.220;2023-10-13T08:23:26;101573.24;;;17.87;100.00
54022;BME280;39936;51.058;17.220;2023-10-13T08:27:07;101558.23;;;17.97;100.00
54022;BME280;39936;51.058;17.220;2023-10-13T08:30:51;101573.61;;;18.18;100.00
54022;BME280;39936;51.058;17.220;2023-10-13T08:34:05;101571.88;;;18.25;99.46
54022;BME280;39936;51.058;17.220;2023-10-13T08:37:33;101590.12;;;18.25;95.76
54022;BME280;39936;51.058;17.220;2023-10-13T08:41:02;101581.76;;;18.28;96.07
54022;BME280;39936;51.058;17.220;2023-10-13T08:44:26;101590.14;;;18.45;96.34
54022;BME280;39936;51.058;17.220;2023-10-13T08:47:51;101588.38;;;18.57;94.90
54022;BME280;39936;51.058;17.220;2023-10-13T08:51:20;101558.49;;;18.52;93.27
54022;BME280;39936;51.058;17.220;2023-10-13T08:54:50;101576.20;;;18.76;92.49
54022;BME280;39936;51.058;17.220;2023-10-13T08:58:24;101573.06;;;18.83;90.69
54022;BME280;39936;51.058;17.220;2023-10-13T09:02:30;101582.02;;;18.84;89.26
54022;BME280;39936;51.058;17.220;2023-10-13T09:05:55;101549.05;;;18.80;90.24
54022;BME280;39936;51.058;17.220;2023-10-13T09:09:30;101573.35;;;19.10;88.45
54022;BME280;39936;51.058;17.220;2023-10-13T09:12:58;101570.20;;;19.19;85.45
54022;BME280;39936;51.058;17.220;2023-10-13T09:16:28;101563.41;;;19.24;85.01
54022;BME280;39936;51.058;17.220;2023-10-13T09:19:55;101565.98;;;19.34;84.88
54022;BME280;39936;51.058;17.220;2023-10-13T09:23:23;101561.98;;;19.42;83.83
54022;BME280;39936;51.058;17.220;2023-10-13T09:26:50;101555.09;;;19.43;80.96
54022;BME280;39936;51.058;17.220;2023-10-13T09:30:11;101557.73;;;19.38;79.43
54022;BME280;39936;51.058;17.220;2023-10-13T09:33:46;101552.92;;;19.49;80.55
54022;BME280;39936;51.058;17.220;2023-10-13T09:37:06;101558.13;;;19.55;79.18
54022;BME280;39936;51.058;17.220;2023-10-13T09:40:36;101558.66;;;19.58;78.45
54022;BME280;39936;51.058;17.220;2023-10-13T09:44:27;101558.28;;;19.63;77.30
54022;BME280;39936;51.058;17.220;2023-10-13T09:48:21;101560.70;;;19.76;78.06
54022;BME280;39936;51.058;17.220;2023-10-13T09:51:42;101556.45;;;19.89;78.13
54022;BME280;39936;51.058;17.220;2023-10-13T09:58:30;101562.60;;;19.73;75.98
54022;BME280;39936;51.058;17.220;2023-10-13T10:02:20;101559.64;;;19.85;76.53
54022;BME280;39936;51.058;17.220;2023-10-13T10:05:43;101555.60;;;19.87;76.89
54022;BME280;39936;51.058;17.220;2023-10-13T10:09:09;101543.53;;;19.92;76.39
54022;BME280;39936;51.058;17.220;2023-10-13T10:20:40;101513.61;;;20.43;75.75
54022;BME280;39936;51.058;17.220;2023-10-13T10:23:56;101513.31;;;20.69;74.76
54022;BME280;39936;51.058;17.220;2023-10-13T10:27:33;101505.77;;;20.71;73.72
54022;BME280;39936;51.058;17.220;2023-10-13T10:31:06;101499.40;;;20.92;74.91
54022;BME280;39936;51.058;17.220;2023-10-13T10:34:32;101482.18;;;20.75;72.30
54022;BME280;39936;51.058;17.220;2023-10-13T10:37:56;101498.69;;;20.69;73.51
54022;BME280;39936;51.058;17.220;2023-10-13T10:41:26;101490.95;;;20.81;73.99
54022;BME280;39936;51.058;17.220;2023-10-13T10:45:10;101483.23;;;20.73;72.29
54022;BME280;39936;51.058;17.220;2023-10-13T10:48:48;101452.70;;;20.61;71.20
54022;BME280;39936;51.058;17.220;2023-10-13T10:52:17;101481.68;;;20.58;71.42
54022;BME280;39936;51.058;17.220;2023-10-13T10:55:38;101457.24;;;20.42;71.05
54022;BME280;39936;51.058;17.220;2023-10-13T10:58:59;101477.18;;;20.65;72.09
54022;BME280;39936;51.058;17.220;2023-10-13T11:02:15;101474.30;;;20.73;71.41
54022;BME280;39936;51.058;17.220;2023-10-13T11:05:45;101476.30;;;20.75;71.24
54022;BME280;39936;51.058;17.220;2023-10-13T11:09:27;101475.77;;;20.80;70.45
54022;BME280;39936;51.058;17.220;2023-10-13T11:13:08;101437.95;;;20.68;70.33
54022;BME280;39936;51.058;17.220;2023-10-13T11:16:48;101457.60;;;20.69;72.01
54022;BME280;39936;51.058;17.220;2023-10-13T11:20:25;101451.93;;;20.71;71.36
54022;BME280;39936;51.058;17.220;2023-10-13T11:23:59;101457.09;;;20.68;71.91
54022;BME280;39936;51.058;17.220;2023-10-13T11:27:31;101450.61;;;20.48;72.67
54022;BME280;39936;51.058;17.220;2023-10-13T11:31:01;101445.72;;;20.47;73.91
54022;BME280;39936;51.058;17.220;2023-10-13T11:34:46;101440.63;;;20.50;73.65
54022;BME280;39936;51.058;17.220;2023-10-13T11:38:27;101435.51;;;20.58;74.01
54022;BME280;39936;51.058;17.220;2023-10-13T11:41:48;101424.95;;;20.76;74.82
54022;BME280;39936;51.058;17.220;2023-10-13T11:45:13;101422.48;;;20.66;74.31
54022;BME280;39936;51.058;17.220;2023-10-13T11:48:51;101417.59;;;20.63;74.39
54022;BME280;39936;51.058;17.220;2023-10-13T11:52:08;101411.47;;;20.65;73.80
54022;BME280;39936;51.058;17.220;2023-10-13T11:55:59;101410.42;;;20.71;75.04
54022;BME280;39936;51.058;17.220;2023-10-13T11:59:36;101400.07;;;20.77;74.83
54022;BME280;39936;51.058;17.220;2023-10-13T12:03:05;101392.70;;;20.59;74.23
54022;BME280;39936;51.058;17.220;2023-10-13T12:06:37;101399.98;;;20.64;74.65
54022;BME280;39936;51.058;17.220;2023-10-13T12:13:59;101399.26;;;20.91;73.77
54022;BME280;39936;51.058;17.220;2023-10-13T12:17:44;101394.61;;;21.19;72.90
54022;BME280;39936;51.058;17.220;2023-10-13T12:21:11;101395.19;;;21.07;71.95
54022;BME280;39936;51.058;17.220;2023-10-13T12:24:41;101396.14;;;20.92;72.48
54022;BME280;39936;51.058;17.220;2023-10-13T12:28:09;101385.37;;;20.79;73.13
54022;BME280;39936;51.058;17.220;2023-10-13T12:31:40;101391.06;;;20.80;73.29
54022;BME280;39936;51.058;17.220;2023-10-13T12:35:16;101391.20;;;20.77;73.70
54022;BME280;39936;51.058;17.220;2023-10-13T12:38:46;101379.93;;;20.64;73.92
54022;BME280;39936;51.058;17.220;2023-10-13T12:42:28;101386.66;;;20.52;73.88
54022;BME280;39936;51.058;17.220;2023-10-13T12:45:57;101380.84;;;20.43;73.87
54022;BME280;39936;51.058;17.220;2023-10-13T12:49:24;101380.62;;;20.34;74.55
54022;BME280;39936;51.058;17.220;2023-10-13T12:53:05;101369.46;;;20.31;74.59
54022;BME280;39936;51.058;17.220;2023-10-13T12:56:37;101367.40;;;20.19;76.53
54022;BME280;39936;51.058;17.220;2023-10-13T13:00:39;101358.95;;;20.21;76.57
54022;BME280;39936;51.058;17.220;2023-10-13T13:04:10;101353.49;;;20.27;78.09
54022;BME280;39936;51.058;17.220;2023-10-13T13:08:00;101349.21;;;20.12;78.24
54022;BME280;39936;51.058;17.220;2023-10-13T13:11:29;101312.20;;;19.88;78.82
54022;BME280;39936;51.058;17.220;2023-10-13T13:14:44;101330.17;;;20.00;78.97
54022;BME280;39936;51.058;17.220;2023-10-13T13:18:16;101332.09;;;19.92;80.52
54022;BME280;39936;51.058;17.220;2023-10-13T13:21:33;101326.20;;;19.84;81.46
54022;BME280;39936;51.058;17.220;2023-10-13T13:24:54;101317.48;;;19.77;81.86
54022;BME280;39936;51.058;17.220;2023-10-13T13:28:38;101329.05;;;19.74;82.22
54022;BME280;39936;51.058;17.220;2023-10-13T13:31:55;101328.48;;;19.57;83.08
54022;BME280;39936;51.058;17.220;2023-10-13T13:35:13;101326.87;;;19.52;83.61
54022;BME280;39936;51.058;17.220;2023-10-13T13:38:46;101324.59;;;19.50;84.18
54022;BME280;39936;51.058;17.220;2023-10-13T13:46:50;101313.27;;;19.45;86.16
54022;BME280;39936;51.058;17.220;2023-10-13T13:50:23;101308.30;;;19.43;86.84
54022;BME280;39936;51.058;17.220;2023-10-13T13:53:46;101303.71;;;19.43;86.71
54022;BME280;39936;51.058;17.220;2023-10-13T13:57:06;101307.28;;;19.43;87.07
54022;BME280;39936;51.058;17.220;2023-10-13T14:01:01;101301.88;;;19.41;88.19
54022;BME280;39936;51.058;17.220;2023-10-13T14:04:30;101304.11;;;19.51;87.75
54022;BME280;39936;51.058;17.220;2023-10-13T14:07:50;101301.26;;;19.60;88.49
54022;BME280;39936;51.058;17.220;2023-10-13T14:11:18;101299.62;;;19.64;88.21
54022;BME280;39936;51.058;17.220;2023-10-13T14:14:59;101288.77;;;19.67;88.15
54022;BME280;39936;51.058;17.220;2023-10-13T14:18:23;101281.52;;;19.65;88.11
54022;BME280;39936;51.058;17.220;2023-10-13T14:22:04;101275.32;;;19.60;88.26
54022;BME280;39936;51.058;17.220;2023-10-13T14:25:27;101277.31;;;19.60;88.60
54022;BME280;39936;51.058;17.220;2023-10-13T14:29:14;101270.29;;;19.54;89.32
54022;BME280;39936;51.058;17.220;2023-10-13T14:32:39;101264.16;;;19.45;89.65
54022;BME280;39936;51.058;17.220;2023-10-13T14:36:16;101261.07;;;19.35;90.56
54022;BME280;39936;51.058;17.220;2023-10-13T14:39:51;101252.37;;;19.27;91.52
54022;BME280;39936;51.058;17.220;2023-10-13T14:47:03;101250.13;;;19.24;93.43
54022;BME280;39936;51.058;17.220;2023-10-13T14:50:47;101247.74;;;19.28;93.79
54022;BME280;39936;51.058;17.220;2023-10-13T14:54:02;101235.74;;;19.27;93.46
54022;BME280;39936;51.058;17.220;2023-10-13T14:57:27;101233.07;;;19.25;93.77
54022;BME280;39936;51.058;17.220;2023-10-13T15:00:45;101238.00;;;19.15;94.73
54022;BME280;39936;51.058;17.220;2023-10-13T15:04:35;101225.11;;;19.09;95.63
54022;BME280;39936;51.058;17.220;2023-10-13T15:08:35;101228.56;;;19.09;96.15
54022;BME280;39936;51.058;17.220;2023-10-13T15:11:50;101214.69;;;18.95;96.37
54022;BME280;39936;51.058;17.220;2023-10-13T15:15:06;101227.25;;;19.00;96.53
54022;BME280;39936;51.058;17.220;2023-10-13T15:18:27;101222.47;;;18.97;96.57
54022;BME280;39936;51.058;17.220;2023-10-13T15:22:07;101222.55;;;18.95;96.47
54022;BME280;39936;51.058;17.220;2023-10-13T15:25:43;101225.52;;;18.86;97.27
54022;BME280;39936;51.058;17.220;2023-10-13T15:29:04;101224.15;;;18.81;97.33
54022;BME280;39936;51.058;17.220;2023-10-13T15:32:27;101218.44;;;18.78;97.40
54022;BME280;39936;51.058;17.220;2023-10-13T15:35:58;101211.27;;;18.77;97.53
54022;BME280;39936;51.058;17.220;2023-10-13T15:39:16;101208.45;;;18.77;97.39
54022;BME280;39936;51.058;17.220;2023-10-13T15:43:11;101206.52;;;18.81;96.99
54022;BME280;39936;51.058;17.220;2023-10-13T15:47:00;101199.44;;;18.88;96.19
54022;BME280;39936;51.058;17.220;2023-10-13T15:50:38;101195.95;;;18.91;95.69
54022;BME280;39936;51.058;17.220;2023-10-13T15:53:52;101177.58;;;18.79;95.37
54022;BME280;39936;51.058;17.220;2023-10-13T15:57:11;101187.88;;;18.89;95.21
54022;BME280;39936;51.058;17.220;2023-10-13T16:00:53;101185.20;;;18.85;95.20
54022;BME280;39936;51.058;17.220;2023-10-13T16:04:51;101177.98;;;18.77;95.32
54022;BME280;39936;51.058;17.220;2023-10-13T16:12:05;101183.02;;;18.72;95.82
54022;BME280;39936;51.058;17.220;2023-10-13T16:15:40;101192.21;;;18.66;96.07
54022;BME280;39936;51.058;17.220;2023-10-13T16:18:56;101192.55;;;18.60;96.52
54022;BME280;39936;51.058;17.220;2023-10-13T16:22:09;101192.46;;;18.54;96.73
54022;BME280;39936;51.058;17.220;2023-10-13T16:25:30;101188.04;;;18.30;98.80
54022;BME280;39936;51.058;17.220;2023-10-13T16:29:08;101179.27;;;18.21;98.99
54022;BME280;39936;51.058;17.220;2023-10-13T16:32:29;101174.93;;;18.16;99.96
54022;BME280;39936;51.058;17.220;2023-10-13T16:35:50;101175.47;;;17.96;100.00
54022;BME280;39936;51.058;17.220;2023-10-13T16:43:04;101145.43;;;17.63;100.00
54022;BME280;39936;51.058;17.220;2023-10-13T16:46:30;101163.59;;;17.71;100.00
54022;BME280;39936;51.058;17.220;2023-10-13T16:50:16;101157.58;;;17.65;100.00
54022;BME280;39936;51.058;17.220;2023-10-13T16:53:36;101162.96;;;17.64;100.00
54022;BME280;39936;51.058;17.220;2023-10-13T16:56:52;101157.55;;;17.58;100.00
54022;BME280;39936;51.058;17.220;2023-10-13T17:00:36;101151.27;;;17.43;100.00
54022;BME280;39936;51.058;17.220;2023-10-13T17:04:08;101155.71;;;17.29;100.00
54022;BME280;39936;51.058;17.220;2023-10-13T17:07:36;101154.59;;;17.22;100.00
54022;BME280;39936;51.058;17.220;2023-10-13T17:11:09;101150.28;;;17.24;100.00
54022;BME280;39936;51.058;17.220;2023-10-13T17:14:28;101146.80;;;17.26;100.00
54022;BME280;39936;51.058;17.220;2023-10-13T17:17:43;101144.10;;;17.20;100.00
54022;BME280;39936;51.058;17.220;2023-10-13T17:21:26;101142.96;;;17.17;100.00
54022;BME280;39936;51.058;17.220;2023-10-13T17:24:47;101145.46;;;17.13;100.00
54022;BME280;39936;51.058;17.220;2023-10-13T17:28:05;101140.93;;;17.16;100.00
54022;BME280;39936;51.058;17.220;2023-10-13T17:31:36;101144.45;;;17.19;100.00
54022;BME280;39936;51.058;17.220;2023-10-13T17:35:15;101137.90;;;17.22;100.00
54022;BME280;39936;51.058;17.220;2023-10-13T17:38:55;101134.65;;;17.24;100.00
54022;BME280;39936;51.058;17.220;2023-10-13T17:42:24;101133.45;;;17.19;100.00
54022;BME280;39936;51.058;17.220;2023-10-13T17:45:42;101120.41;;;17.10;100.00
54022;BME280;39936;51.058;17.220;2023-10-13T17:52:51;101120.74;;;16.95;100.00
54022;BME280;39936;51.058;17.220;2023-10-13T17:56:31;101090.88;;;16.73;100.00
54022;BME280;39936;51.058;17.220;2023-10-13T17:59:43;101104.09;;;16.77;100.00
54022;BME280;39936;51.058;17.220;2023-10-13T18:03:27;101114.63;;;16.83;100.00
54022;BME280;39936;51.058;17.220;2023-10-13T18:06:41;101107.66;;;16.81;100.00
54022;BME280;39936;51.058;17.220;2023-10-13T18:10:10;101090.86;;;16.63;100.00
54022;BME280;39936;51.058;17.220;2023-10-13T18:14:11;101113.50;;;16.75;100.00
54022;BME280;39936;51.058;17.220;2023-10-13T18:17:47;101111.96;;;16.68;100.00
54022;BME280;39936;51.058;17.220;2023-10-13T18:21:10;101104.48;;;16.69;100.00
54022;BME280;39936;51.058;17.220;2023-10-13T18:24:57;101102.68;;;16.67;100.00
54022;BME280;39936;51.058;17.220;2023-10-13T18:28:14;101098.37;;;16.67;100.00
54022;BME280;39936;51.058;17.220;2023-10-13T18:31:54;101091.45;;;16.67;100.00
54022;BME280;39936;51.058;17.220;2023-10-13T18:35:09;101095.80;;;16.62;100.00
54022;BME280;39936;51.058;17.220;2023-10-13T18:39:14;101097.04;;;16.53;100.00
54022;BME280;39936;51.058;17.220;2023-10-13T18:42:29;101084.69;;;16.39;100.00
54022;BME280;39936;51.058;17.220;2023-10-13T18:46:36;101086.35;;;16.42;100.00
54022;BME280;39936;51.058;17.220;2023-10-13T18:49:53;101080.02;;;16.40;100.00
54022;BME280;39936;51.058;17.220;2023-10-13T18:53:10;101064.97;;;16.31;100.00